createdAt,value
2018-08-20T00:02:59.792Z,23.33
2018-08-20T00:06:24.423Z,23.94
2018-08-20T00:09:49.152Z,24.25
2018-08-20T00:13:14.454Z,23.40
2018-08-20T00:16:40.101Z,24.04
2018-08-20T00:20:05.958Z,24.07
2018-08-20T00:23:30.610Z,23.09
2018-08-20T00:26:55.996Z,23.50
2018-08-20T00:30:20.902Z,24.25
2018-08-20T00:33:46.768Z,23.04
2018-08-20T00:37:11.444Z,23.43
2018-08-20T00:40:36.180Z,22.79
2018-08-20T00:44:01.476Z,22.12
2018-08-20T00:47:26.144Z,22.42
2018-08-20T00:50:50.832Z,22.16
2018-08-20T00:54:15.506Z,23.10
2018-08-20T00:57:40.727Z,24.19
2018-08-20T01:01:06.228Z,24.25
2018-08-20T01:04:31.794Z,23.75
2018-08-20T01:07:56.476Z,24.10
2018-08-20T01:11:21.358Z,23.79
2018-08-20T01:14:46.900Z,22.57
2018-08-20T01:18:14.133Z,22.26
2018-08-20T01:21:38.764Z,22.45
2018-08-20T01:25:03.511Z,22.11
2018-08-20T01:28:28.226Z,22.46
2018-08-20T01:31:52.886Z,22.71
2018-08-20T01:35:28.274Z,23.92
2018-08-20T01:38:53.410Z,24.10
2018-08-20T01:42:19.328Z,24.07
2018-08-20T01:45:44.578Z,23.94
2018-08-20T01:49:09.286Z,22.91
2018-08-20T01:52:35.379Z,23.52
2018-08-20T01:56:00.098Z,24.09
2018-08-20T01:59:26.888Z,23.80
2018-08-20T02:02:54.288Z,24.03
2018-08-20T02:06:19.997Z,23.95
2018-08-20T02:09:45.412Z,23.86
2018-08-20T02:13:10.156Z,23.20
2018-08-20T02:16:35.651Z,22.96
2018-08-20T02:20:00.456Z,22.99
2018-08-20T02:23:25.742Z,23.29
2018-08-20T02:26:50.707Z,21.30
2018-08-20T02:30:16.018Z,21.28
2018-08-20T02:33:40.697Z,22.49
2018-08-20T02:37:05.504Z,23.58
2018-08-20T02:40:30.420Z,22.65
2018-08-20T02:43:55.048Z,21.08
2018-08-20T02:47:19.879Z,21.08
2018-08-20T02:50:45.389Z,20.70
2018-08-20T02:54:10.721Z,20.76
2018-08-20T03:05:35.067Z,22.34
2018-08-20T03:08:59.936Z,22.16
2018-08-20T03:12:26.392Z,21.39
2018-08-20T03:15:52.390Z,21.35
2018-08-20T03:19:18.091Z,21.38
2018-08-20T03:22:44.514Z,21.70
2018-08-20T03:26:09.994Z,21.05
2018-08-20T03:29:35.994Z,21.99
2018-08-20T03:33:01.575Z,21.44
2018-08-20T03:36:26.495Z,22.93
2018-08-20T03:39:51.908Z,23.38
2018-08-20T03:43:16.673Z,21.49
2018-08-20T03:46:41.341Z,21.13
2018-08-20T03:50:08.798Z,21.61
2018-08-20T03:53:33.613Z,21.34
2018-08-20T03:56:58.338Z,20.76
2018-08-20T04:00:24.422Z,21.33
2018-08-20T04:03:49.102Z,22.41
2018-08-20T04:07:13.816Z,22.90
2018-08-20T04:10:38.750Z,21.92
2018-08-20T04:14:03.568Z,21.49
2018-08-20T04:17:29.996Z,21.06
2018-08-20T04:20:54.660Z,22.56
2018-08-20T04:24:24.102Z,23.17
2018-08-20T04:27:48.877Z,23.02
2018-08-20T04:31:14.894Z,22.43
2018-08-20T04:34:40.252Z,21.18
2018-08-20T04:38:05.580Z,21.90
2018-08-20T04:41:30.345Z,21.58
2018-08-20T04:44:55.000Z,22.42
2018-08-20T04:48:19.652Z,23.24
2018-08-20T04:51:45.527Z,22.70
2018-08-20T04:55:10.420Z,20.84
2018-08-20T04:58:38.129Z,21.19
2018-08-20T05:02:02.848Z,22.12
2018-08-20T05:05:27.730Z,22.40
2018-08-20T05:08:52.382Z,21.17
2018-08-20T05:12:17.162Z,21.83
2018-08-20T05:15:41.796Z,21.22
2018-08-20T05:19:06.607Z,21.16
2018-08-20T05:22:31.944Z,20.97
2018-08-20T05:25:57.382Z,20.44
2018-08-20T05:29:23.117Z,20.74
2018-08-20T05:32:47.771Z,20.94
2018-08-20T05:36:12.533Z,21.16
2018-08-20T05:39:37.214Z,20.36
2018-08-20T05:43:03.517Z,21.59
2018-08-20T05:46:28.209Z,21.05
2018-08-20T05:49:53.012Z,20.91
2018-08-20T05:53:18.877Z,21.39
2018-08-20T05:56:44.362Z,22.30
2018-08-20T06:00:16.086Z,21.79
2018-08-20T06:03:42.169Z,22.29
2018-08-20T06:07:06.875Z,21.75
2018-08-20T06:10:32.033Z,21.93
2018-08-20T06:13:57.052Z,22.03
2018-08-20T06:17:22.463Z,21.69
2018-08-20T06:20:47.225Z,22.06
2018-08-20T06:24:12.466Z,22.47
2018-08-20T06:27:37.366Z,21.68
2018-08-20T06:31:02.066Z,22.09
2018-08-20T06:34:28.398Z,21.75
2018-08-20T06:37:53.154Z,22.34
2018-08-20T06:41:18.470Z,22.12
2018-08-20T06:44:43.195Z,22.03
2018-08-20T06:48:08.137Z,22.64
2018-08-20T06:51:33.034Z,22.96
2018-08-20T06:54:58.245Z,22.68
2018-08-20T06:58:23.124Z,22.23
2018-08-20T07:01:47.963Z,23.06
2018-08-20T07:05:13.330Z,22.51
2018-08-20T07:08:38.110Z,22.89
2018-08-20T07:12:02.855Z,23.06
2018-08-20T07:15:28.045Z,22.91
2018-08-20T07:18:53.200Z,22.92
2018-08-20T07:22:19.436Z,23.63
2018-08-20T07:25:44.184Z,22.66
2018-08-20T07:29:08.850Z,22.99
2018-08-20T07:32:34.340Z,23.44
2018-08-20T07:35:58.974Z,23.29
2018-08-20T07:39:23.662Z,23.67
2018-08-20T07:42:48.431Z,23.51
2018-08-20T07:46:14.379Z,23.79
2018-08-20T07:49:39.162Z,23.71
2018-08-20T07:53:04.379Z,23.54
2018-08-20T07:56:30.141Z,23.47
2018-08-20T07:59:54.820Z,23.98
2018-08-20T08:03:25.420Z,23.89
2018-08-20T08:06:50.182Z,24.24
2018-08-20T08:10:16.952Z,24.07
2018-08-20T08:13:42.764Z,23.99
2018-08-20T08:17:07.772Z,24.08
2018-08-20T08:20:32.430Z,24.18
2018-08-20T08:24:00.041Z,24.22
2018-08-20T08:27:24.922Z,24.36
2018-08-20T08:30:50.791Z,24.50
2018-08-20T08:34:15.440Z,24.42
2018-08-20T08:37:40.340Z,24.50
2018-08-20T08:41:06.628Z,24.62
2018-08-20T08:44:31.311Z,24.51
2018-08-20T08:47:56.786Z,24.66
2018-08-20T08:51:21.960Z,24.87
2018-08-20T08:54:47.296Z,24.90
2018-08-20T08:58:12.106Z,24.98
2018-08-20T09:01:36.921Z,25.04
2018-08-20T09:05:03.157Z,25.08
2018-08-20T09:08:29.332Z,25.13
2018-08-20T09:11:55.654Z,25.09
2018-08-20T09:15:21.077Z,25.26
2018-08-20T09:18:45.879Z,25.27
2018-08-20T09:22:10.622Z,25.36
2018-08-20T09:25:35.819Z,25.58
2018-08-20T09:29:00.484Z,25.61
2018-08-20T09:32:26.081Z,25.68
2018-08-20T09:35:50.774Z,25.62
2018-08-20T09:39:16.544Z,25.46
2018-08-20T09:42:42.858Z,25.88
2018-08-20T09:46:07.575Z,26.04
2018-08-20T09:49:32.270Z,25.96
2018-08-20T09:52:56.887Z,25.90
2018-08-20T09:56:22.202Z,25.85
2018-08-20T09:59:48.792Z,26.06
2018-08-20T10:03:13.489Z,26.07
2018-08-20T10:06:38.316Z,25.85
2018-08-20T10:10:02.974Z,26.11
2018-08-20T10:13:27.740Z,25.96
2018-08-20T10:16:53.142Z,26.28
2018-08-20T10:20:18.792Z,26.22
2018-08-20T10:23:43.450Z,26.58
2018-08-20T10:27:08.089Z,26.10
2018-08-20T10:30:32.811Z,26.42
2018-08-20T10:33:58.565Z,26.45
2018-08-20T10:37:26.919Z,26.67
2018-08-20T10:40:51.666Z,26.65
2018-08-20T10:44:19.422Z,26.58
2018-08-20T10:47:45.895Z,25.87
2018-08-20T10:51:10.586Z,26.18
2018-08-20T10:54:35.242Z,26.03
2018-08-20T10:57:59.957Z,26.87
2018-08-20T11:01:25.889Z,26.63
2018-08-20T11:04:55.730Z,27.27
2018-08-20T11:08:20.477Z,27.05
2018-08-20T11:11:45.202Z,27.26
2018-08-20T11:15:11.327Z,27.25
2018-08-20T11:18:37.037Z,27.38
2018-08-20T11:22:03.063Z,27.39
2018-08-20T11:25:27.916Z,26.80
2018-08-20T11:28:52.645Z,27.77
2018-08-20T11:32:17.308Z,27.17
2018-08-20T11:35:42.179Z,27.16
2018-08-20T11:39:08.082Z,27.46
2018-08-20T11:42:33.468Z,26.51
2018-08-20T11:45:58.291Z,26.82
2018-08-20T11:49:24.626Z,26.46
2018-08-20T11:52:49.347Z,26.54
2018-08-20T11:56:15.535Z,27.23
2018-08-20T11:59:41.205Z,27.50
2018-08-20T12:03:06.496Z,27.67
2018-08-20T12:06:32.369Z,28.51
2018-08-20T12:09:57.005Z,27.83
2018-08-20T12:13:21.701Z,28.36
2018-08-20T12:16:47.237Z,26.67
2018-08-20T12:20:11.988Z,27.17
2018-08-20T12:23:36.693Z,26.87
2018-08-20T12:27:01.521Z,28.06
2018-08-20T12:30:26.271Z,28.07
2018-08-20T12:33:51.059Z,27.45
2018-08-20T12:37:15.701Z,27.92
2018-08-20T12:40:40.383Z,27.52
2018-08-20T12:44:05.981Z,27.51
2018-08-20T12:47:31.259Z,27.88
2018-08-20T12:50:56.557Z,27.59
2018-08-20T12:54:21.181Z,28.37
2018-08-20T12:57:46.598Z,28.57
2018-08-20T13:01:11.304Z,26.69
2018-08-20T13:04:35.890Z,27.70
2018-08-20T13:08:00.679Z,26.71
2018-08-20T13:11:25.424Z,27.38
2018-08-20T13:14:50.067Z,28.33
2018-08-20T13:18:14.761Z,27.37
2018-08-20T13:21:39.447Z,28.61
2018-08-20T13:25:04.177Z,27.49
2018-08-20T13:28:28.850Z,28.28
2018-08-20T13:31:53.624Z,28.86
2018-08-20T13:35:18.338Z,29.11
2018-08-20T13:38:43.977Z,27.64
2018-08-20T13:42:10.285Z,28.01
2018-08-20T13:45:35.828Z,27.82
2018-08-20T13:49:00.539Z,26.81
2018-08-20T13:52:25.228Z,26.97
2018-08-20T13:55:50.455Z,26.96
2018-08-20T13:59:15.164Z,27.72
2018-08-20T14:02:40.002Z,28.79
2018-08-20T14:06:05.861Z,28.24
2018-08-20T14:09:30.613Z,26.93
2018-08-20T14:12:55.381Z,28.40
2018-08-20T14:16:20.729Z,28.51
2018-08-20T14:19:46.191Z,29.04
2018-08-20T14:23:11.073Z,27.22
2018-08-20T14:26:35.745Z,27.21
2018-08-20T14:30:01.469Z,29.14
2018-08-20T14:33:26.120Z,28.33
2018-08-20T14:36:52.340Z,27.81
2018-08-20T14:40:19.008Z,28.94
2018-08-20T14:43:44.295Z,27.55
2018-08-20T14:47:09.025Z,27.48
2018-08-20T14:50:33.754Z,29.01
2018-08-20T14:53:59.181Z,28.36
2018-08-20T14:57:23.881Z,27.65
2018-08-20T15:00:48.658Z,27.69
2018-08-20T15:04:14.075Z,29.08
2018-08-20T15:07:39.711Z,27.67
2018-08-20T15:11:04.385Z,27.52
2018-08-20T15:14:29.091Z,29.93
2018-08-20T15:17:53.712Z,30.15
2018-08-20T15:21:19.044Z,30.15
2018-08-20T15:24:44.747Z,29.76
2018-08-20T15:28:09.468Z,29.85
2018-08-20T15:31:34.766Z,30.54
2018-08-20T15:35:02.298Z,30.53
2018-08-20T15:38:27.040Z,30.64
2018-08-20T15:41:51.810Z,30.13
2018-08-20T15:45:16.515Z,29.12
2018-08-20T15:48:42.178Z,30.27
2018-08-20T15:52:07.082Z,30.47
2018-08-20T15:55:31.768Z,31.03
2018-08-20T15:58:56.551Z,30.26
2018-08-20T16:02:21.212Z,29.04
2018-08-20T16:05:45.917Z,30.28
2018-08-20T16:09:11.780Z,27.90
2018-08-20T16:12:36.657Z,29.74
2018-08-20T16:16:01.456Z,31.15
2018-08-20T16:19:26.830Z,29.37
2018-08-20T16:22:51.523Z,27.75
2018-08-20T16:26:17.245Z,28.30
2018-08-20T16:29:43.657Z,27.88
2018-08-20T16:33:08.999Z,29.54
2018-08-20T16:36:35.855Z,30.55
2018-08-20T16:40:02.698Z,29.90
2018-08-20T16:43:27.525Z,29.27
2018-08-20T16:46:52.410Z,28.33
2018-08-20T16:50:17.210Z,27.57
2018-08-20T16:53:42.043Z,27.63
2018-08-20T16:57:07.155Z,29.69
2018-08-20T17:00:32.840Z,30.32
2018-08-20T17:03:58.251Z,29.29
2018-08-20T17:07:24.068Z,29.25
2018-08-20T17:10:49.024Z,30.71
2018-08-20T17:14:13.816Z,30.12
2018-08-20T17:17:41.027Z,28.58
2018-08-20T17:21:08.867Z,27.91
2018-08-20T17:24:38.547Z,27.46
2018-08-20T17:28:04.187Z,27.41
2018-08-20T17:31:28.931Z,28.29
2018-08-20T17:34:54.848Z,27.57
2018-08-20T17:38:19.564Z,27.47
2018-08-20T17:41:45.276Z,28.16
2018-08-20T17:45:10.917Z,28.20
2018-08-20T17:48:35.707Z,28.95
2018-08-20T17:52:00.970Z,29.40
2018-08-20T17:55:26.931Z,29.08
2018-08-20T17:59:01.326Z,28.73
2018-08-20T18:02:27.538Z,28.39
2018-08-20T18:05:55.940Z,27.59
2018-08-20T18:09:22.575Z,28.06
2018-08-20T18:12:48.082Z,27.71
2018-08-20T18:16:15.942Z,27.93
2018-08-20T18:19:40.781Z,27.70
2018-08-20T18:23:06.105Z,27.70
2018-08-20T18:26:35.865Z,27.98
2018-08-20T18:30:00.871Z,27.72
2018-08-20T18:33:28.197Z,27.63
2018-08-20T18:36:53.191Z,27.64
2018-08-20T18:40:19.323Z,27.62
2018-08-20T18:43:44.800Z,27.66
2018-08-20T18:47:11.447Z,27.60
2018-08-20T18:50:36.540Z,27.21
2018-08-20T18:54:01.311Z,27.27
2018-08-20T18:57:34.680Z,26.96
2018-08-20T19:00:59.836Z,26.93
2018-08-20T19:04:25.111Z,26.82
2018-08-20T19:07:49.902Z,27.01
2018-08-20T19:11:14.672Z,26.78
2018-08-20T19:14:39.374Z,26.83
2018-08-20T19:18:04.325Z,26.75
2018-08-20T19:21:30.683Z,26.68
2018-08-20T19:24:57.094Z,26.59
2018-08-20T19:28:24.621Z,26.46
2018-08-20T19:31:49.481Z,26.67
2018-08-20T19:35:15.045Z,26.48
2018-08-20T19:38:41.184Z,26.56
2018-08-20T19:42:06.500Z,26.48
2018-08-20T19:45:35.312Z,26.77
2018-08-20T19:49:05.692Z,26.43
2018-08-20T19:52:31.891Z,26.25
2018-08-20T19:55:56.568Z,26.21
2018-08-20T19:59:30.820Z,26.20
2018-08-20T20:02:55.527Z,26.06
2018-08-20T20:06:20.894Z,25.99
2018-08-20T20:09:45.592Z,25.94
2018-08-20T20:13:11.707Z,25.90
2018-08-20T20:16:41.620Z,25.94
2018-08-20T20:20:07.236Z,25.85
2018-08-20T20:23:31.966Z,25.96
2018-08-20T20:26:56.761Z,26.00
2018-08-20T20:30:22.398Z,25.98
2018-08-20T20:33:47.081Z,25.98
2018-08-20T20:37:11.728Z,25.85
2018-08-20T20:40:36.418Z,25.95
2018-08-20T20:44:01.683Z,25.85
2018-08-20T20:47:27.592Z,25.82
2018-08-20T20:50:53.115Z,25.88
2018-08-20T20:54:18.062Z,25.58
2018-08-20T20:57:42.702Z,25.69
2018-08-20T21:01:08.888Z,25.64
2018-08-20T21:04:36.526Z,25.73
2018-08-20T21:08:01.270Z,25.63
2018-08-20T21:11:25.950Z,25.53
2018-08-20T21:14:50.665Z,25.48
2018-08-20T21:18:15.941Z,25.29
2018-08-20T21:21:41.249Z,25.34
2018-08-20T21:25:07.905Z,25.21
2018-08-20T21:28:39.392Z,25.26
2018-08-20T21:32:04.753Z,25.06
2018-08-20T21:35:29.432Z,25.08
2018-08-20T21:38:56.662Z,25.19
2018-08-20T21:42:31.082Z,25.24
2018-08-20T21:45:57.551Z,25.30
2018-08-20T21:49:22.908Z,25.03
2018-08-20T21:52:49.024Z,24.84
2018-08-20T21:56:13.928Z,25.09
2018-08-20T21:59:38.634Z,25.05
2018-08-20T22:03:03.394Z,24.92
2018-08-20T22:06:28.153Z,24.91
2018-08-20T22:09:53.118Z,24.88
2018-08-20T22:13:18.421Z,24.87
2018-08-20T22:16:43.173Z,24.83
2018-08-20T22:20:08.578Z,24.85
2018-08-20T22:23:39.182Z,24.97
2018-08-20T22:26:58.650Z,25.18
2018-08-20T22:30:23.443Z,24.77
2018-08-20T22:33:58.717Z,24.56
2018-08-20T22:37:23.337Z,24.47
2018-08-20T22:40:49.793Z,24.34
2018-08-20T22:44:14.451Z,24.50
2018-08-20T22:47:39.255Z,24.64
2018-08-20T22:51:14.207Z,24.51
2018-08-20T22:54:38.869Z,24.62
2018-08-20T22:58:18.617Z,24.94
2018-08-20T23:01:43.324Z,24.87
2018-08-20T23:05:12.712Z,24.31
2018-08-20T23:08:39.339Z,24.24
2018-08-20T23:12:05.084Z,24.26
2018-08-20T23:15:29.733Z,24.27
2018-08-20T23:18:55.511Z,24.68
2018-08-20T23:22:20.377Z,24.46
2018-08-20T23:25:47.325Z,24.41
2018-08-20T23:29:12.295Z,24.41
2018-08-20T23:32:37.055Z,24.43
2018-08-20T23:36:01.790Z,24.03
2018-08-20T23:39:26.455Z,24.13
2018-08-20T23:42:51.188Z,24.07
2018-08-20T23:46:31.296Z,24.26
2018-08-20T23:49:56.480Z,23.86
2018-08-20T23:53:22.819Z,24.10
2018-08-20T23:56:48.515Z,24.29
